createdAt,value
2022-09-12T00:00:15.944Z,17.90
2022-09-12T00:00:47.611Z,9.70
2022-09-12T00:01:21.566Z,13.95
2022-09-12T00:01:53.203Z,12.30
2022-09-12T00:02:25.400Z,16.45
2022-09-12T00:02:58.122Z,10.35
2022-09-12T00:03:29.620Z,12.10
2022-09-12T00:04:02.101Z,10.82
2022-09-12T00:04:33.622Z,13.25
2022-09-12T00:05:07.440Z,8.52
2022-09-12T00:05:46.488Z,9.35
2022-09-12T00:06:22.941Z,9.82
2022-09-12T00:06:54.899Z,9.98
2022-09-12T00:07:26.439Z,9.88
2022-09-12T00:07:58.012Z,11.00
2022-09-12T00:08:29.685Z,12.68
2022-09-12T00:09:07.193Z,10.68
2022-09-12T00:09:39.214Z,14.70
2022-09-12T00:10:10.757Z,10.05
2022-09-12T00:10:43.735Z,13.10
2022-09-12T00:11:15.367Z,11.43
2022-09-12T00:11:47.210Z,13.55
2022-09-12T00:12:18.747Z,10.93
2022-09-12T00:12:50.452Z,11.93
2022-09-12T00:13:21.943Z,11.52
2022-09-12T00:13:59.068Z,11.00
2022-09-12T00:14:30.684Z,11.57
2022-09-12T00:15:02.233Z,12.10
2022-09-12T00:15:41.462Z,15.63
2022-09-12T00:16:33.255Z,10.30
2022-09-12T00:17:04.856Z,10.90
2022-09-12T00:17:37.461Z,12.45
2022-09-12T00:18:12.459Z,12.60
2022-09-12T00:18:46.712Z,12.70
2022-09-12T00:19:19.013Z,11.95
2022-09-12T00:19:50.513Z,14.35
2022-09-12T00:20:22.037Z,13.48
2022-09-12T00:20:53.542Z,13.10
2022-09-12T00:21:26.460Z,13.10
2022-09-12T00:21:57.970Z,11.70
2022-09-12T00:22:29.449Z,11.85
2022-09-12T00:23:01.023Z,12.48
2022-09-12T00:23:33.352Z,13.35
2022-09-12T00:24:05.817Z,12.95
2022-09-12T00:24:37.488Z,12.48
2022-09-12T00:25:09.209Z,11.30
2022-09-12T00:25:42.545Z,13.07
2022-09-12T00:26:14.859Z,12.27
2022-09-12T00:26:46.423Z,11.75
2022-09-12T00:27:17.962Z,10.95
2022-09-12T00:27:49.530Z,14.45
2022-09-12T00:28:21.135Z,12.10
2022-09-12T00:28:52.871Z,12.63
2022-09-12T00:29:24.427Z,12.93
2022-09-12T00:29:56.177Z,16.58
2022-09-12T00:30:27.695Z,12.07
2022-09-12T00:30:59.388Z,12.93
2022-09-12T00:31:31.363Z,12.65
2022-09-12T00:32:02.992Z,15.77
2022-09-12T00:32:34.494Z,12.35
2022-09-12T00:33:06.026Z,14.13
2022-09-12T00:33:37.585Z,11.88
2022-09-12T00:34:09.647Z,12.35
2022-09-12T00:34:41.559Z,10.82
2022-09-12T00:35:13.285Z,11.52
2022-09-12T00:35:50.659Z,12.02
2022-09-12T00:36:23.846Z,9.30
2022-09-12T00:36:55.416Z,10.60
2022-09-12T00:37:26.892Z,11.82
2022-09-12T00:37:58.429Z,10.25
2022-09-12T00:38:29.936Z,11.02
2022-09-12T00:39:01.625Z,11.73
2022-09-12T00:39:33.163Z,12.02
2022-09-12T00:40:05.184Z,11.55
2022-09-12T00:40:37.017Z,10.63
2022-09-12T00:41:15.708Z,10.68
2022-09-12T00:41:47.204Z,10.55
2022-09-12T00:42:18.684Z,10.60
2022-09-12T00:42:50.185Z,10.02
2022-09-12T00:43:30.473Z,11.32
2022-09-12T00:44:23.725Z,12.27
2022-09-12T00:44:55.222Z,11.10
2022-09-12T00:45:28.840Z,10.65
2022-09-12T00:46:20.763Z,9.38
2022-09-12T00:46:58.262Z,10.30
2022-09-12T00:47:31.124Z,13.32
2022-09-12T00:48:04.449Z,11.23
2022-09-12T00:48:42.195Z,10.57
2022-09-12T00:49:22.629Z,9.30
2022-09-12T00:50:13.002Z,10.65
2022-09-12T00:50:44.581Z,10.32
2022-09-12T00:51:17.591Z,10.52
2022-09-12T00:52:04.104Z,12.20
2022-09-12T00:52:44.977Z,10.40
2022-09-12T00:53:16.581Z,10.50
2022-09-12T00:53:49.399Z,14.43
2022-09-12T00:54:24.910Z,11.50
2022-09-12T00:55:08.548Z,13.38
2022-09-12T00:55:42.670Z,13.52
2022-09-12T00:56:15.894Z,8.68
2022-09-12T00:56:50.209Z,10.63
2022-09-12T00:57:24.360Z,12.07
2022-09-12T00:57:59.487Z,12.27
2022-09-12T00:58:37.093Z,11.10
2022-09-12T00:59:18.212Z,11.60
2022-09-12T00:59:54.272Z,14.65
2022-09-12T01:00:27.234Z,11.85
2022-09-12T01:00:58.981Z,11.95
2022-09-12T01:01:32.578Z,11.73
2022-09-12T01:02:04.711Z,11.30
2022-09-12T01:02:36.384Z,11.98
2022-09-12T01:03:11.593Z,13.13
2022-09-12T01:03:43.114Z,11.10
2022-09-12T01:04:15.087Z,11.82
2022-09-12T01:04:47.925Z,10.90
2022-09-12T01:05:20.328Z,11.07
2022-09-12T01:06:13.375Z,11.50
2022-09-12T01:06:44.952Z,11.02
2022-09-12T01:07:16.550Z,12.68
2022-09-12T01:07:50.117Z,13.10
2022-09-12T01:08:22.143Z,12.27
2022-09-12T01:08:54.993Z,9.93
2022-09-12T01:09:26.820Z,13.57
2022-09-12T01:09:58.367Z,12.10
2022-09-12T01:10:30.352Z,12.15
2022-09-12T01:11:01.889Z,11.88
2022-09-12T01:11:36.689Z,11.85
2022-09-12T01:12:11.289Z,13.15
2022-09-12T01:12:43.821Z,10.75
2022-09-12T01:13:15.389Z,11.50
2022-09-12T01:13:48.711Z,10.30
2022-09-12T01:14:20.888Z,10.45
2022-09-12T01:14:52.556Z,11.13
2022-09-12T01:15:24.127Z,12.05
2022-09-12T01:15:57.001Z,12.02
2022-09-12T01:16:28.714Z,10.90
2022-09-12T01:17:00.466Z,12.88
2022-09-12T01:17:44.873Z,12.85
2022-09-12T01:18:48.729Z,10.73
2022-09-12T01:19:47.776Z,10.63
2022-09-12T01:21:06.957Z,15.00
2022-09-12T01:22:13.541Z,10.35
2022-09-12T01:22:45.023Z,10.43
2022-09-12T01:23:49.219Z,11.23
2022-09-12T01:24:33.308Z,9.65
2022-09-12T01:25:17.020Z,9.05
2022-09-12T01:26:39.683Z,10.73
2022-09-12T01:27:32.434Z,11.02
2022-09-12T01:28:44.243Z,9.35
2022-09-12T01:30:09.794Z,11.93
2022-09-12T01:30:45.844Z,8.20
2022-09-12T01:31:29.761Z,9.38
2022-09-12T01:32:15.886Z,12.10
2022-09-12T01:33:08.909Z,10.38
2022-09-12T01:33:53.651Z,13.48
2022-09-12T01:34:43.721Z,12.43
2022-09-12T01:35:43.141Z,10.98
2022-09-12T01:36:17.196Z,9.60
2022-09-12T01:37:33.590Z,10.48
2022-09-12T01:38:20.167Z,13.82
2022-09-12T01:39:01.625Z,10.00
2022-09-12T01:39:40.591Z,11.65
2022-09-12T01:40:38.354Z,9.48
2022-09-12T01:41:15.597Z,9.38
2022-09-12T01:42:21.254Z,10.95
2022-09-12T01:43:18.390Z,8.15
2022-09-12T01:43:59.031Z,6.95
2022-09-12T01:44:45.362Z,8.82
2022-09-12T01:45:22.332Z,7.45
2022-09-12T01:46:02.724Z,7.80
2022-09-12T01:47:10.199Z,13.38
2022-09-12T01:47:45.668Z,9.57
2022-09-12T01:48:22.800Z,8.93
2022-09-12T01:49:07.734Z,8.10
2022-09-12T01:49:52.394Z,7.55
2022-09-12T01:50:36.417Z,7.90
2022-09-12T01:51:20.548Z,8.05
2022-09-12T01:52:10.066Z,7.88
2022-09-12T01:52:47.466Z,7.97
2022-09-12T01:53:42.337Z,9.27
2022-09-12T01:54:20.863Z,14.80
2022-09-12T01:55:13.820Z,10.90
2022-09-12T01:55:56.019Z,8.93
2022-09-12T01:56:29.809Z,9.93
2022-09-12T01:57:04.484Z,8.95
2022-09-12T01:57:41.389Z,10.43
2022-09-12T01:58:18.031Z,8.48
2022-09-12T01:58:53.798Z,10.00
2022-09-12T01:59:38.925Z,12.60
2022-09-12T02:00:11.977Z,9.75
2022-09-12T02:01:00.284Z,9.75
2022-09-12T02:01:33.960Z,8.77
2022-09-12T02:02:16.286Z,10.32
2022-09-12T02:02:56.489Z,9.38
2022-09-12T02:03:32.980Z,10.70
2022-09-12T02:04:19.630Z,11.88
2022-09-12T02:04:52.747Z,9.38
2022-09-12T02:05:31.709Z,9.90
2022-09-12T02:06:10.247Z,8.27
2022-09-12T02:06:49.966Z,7.00
2022-09-12T02:07:27.454Z,8.25
2022-09-12T02:08:18.063Z,9.95
2022-09-12T02:08:53.376Z,8.52
2022-09-12T02:09:34.097Z,7.45
2022-09-12T02:10:09.913Z,9.70
2022-09-12T02:10:45.434Z,11.15
2022-09-12T02:11:16.961Z,10.75
2022-09-12T02:11:50.609Z,10.27
2022-09-12T02:12:26.029Z,10.27
2022-09-12T02:13:01.831Z,9.90
2022-09-12T02:13:59.035Z,10.20
2022-09-12T02:14:33.918Z,10.02
2022-09-12T02:15:08.783Z,8.50
2022-09-12T02:15:44.339Z,11.57
2022-09-12T02:16:19.601Z,7.57
2022-09-12T02:17:01.409Z,8.07
2022-09-12T02:17:38.148Z,8.73
2022-09-12T02:18:14.594Z,8.30
2022-09-12T02:18:51.098Z,11.73
2022-09-12T02:19:24.964Z,7.70
2022-09-12T02:20:06.217Z,7.15
2022-09-12T02:20:48.628Z,6.38
2022-09-12T02:21:22.515Z,7.47
2022-09-12T02:21:59.697Z,7.00
2022-09-12T02:22:31.764Z,9.90
2022-09-12T02:23:06.347Z,10.25
2022-09-12T02:23:41.375Z,14.00
2022-09-12T02:24:14.933Z,9.50
2022-09-12T02:24:50.856Z,10.23
2022-09-12T02:25:24.107Z,10.35
2022-09-12T02:26:04.702Z,9.63
2022-09-12T02:26:48.361Z,9.30
2022-09-12T02:27:24.407Z,10.63
2022-09-12T02:28:09.256Z,10.05
2022-09-12T02:28:42.640Z,10.63
2022-09-12T02:29:14.155Z,8.48
2022-09-12T02:29:45.933Z,9.13
2022-09-12T02:30:19.394Z,10.30
2022-09-12T02:30:59.813Z,8.25
2022-09-12T02:31:46.224Z,12.85
2022-09-12T02:32:29.703Z,8.70
2022-09-12T02:33:07.714Z,8.13
2022-09-12T02:34:08.265Z,6.88
2022-09-12T02:34:59.675Z,10.00
2022-09-12T02:36:24.070Z,9.90
2022-09-12T02:37:07.908Z,13.63
2022-09-12T02:38:00.736Z,11.45
2022-09-12T02:38:39.454Z,11.18
2022-09-12T02:39:10.950Z,10.07
2022-09-12T02:39:45.384Z,13.80
2022-09-12T02:40:17.884Z,11.07
2022-09-12T02:40:49.459Z,14.15
2022-09-12T02:41:21.344Z,12.85
2022-09-12T02:41:55.257Z,10.88
2022-09-12T02:42:27.094Z,10.88
2022-09-12T02:42:58.769Z,11.95
2022-09-12T02:43:30.248Z,12.48
2022-09-12T02:44:03.511Z,14.57
2022-09-12T02:44:35.271Z,11.00
2022-09-12T02:45:07.415Z,11.30
2022-09-12T02:45:39.069Z,11.50
2022-09-12T02:46:16.089Z,11.57
2022-09-12T02:46:50.396Z,10.80
2022-09-12T02:47:29.193Z,12.65
2022-09-12T02:48:30.637Z,12.57
2022-09-12T02:49:02.964Z,14.35
2022-09-12T02:49:34.552Z,12.48
2022-09-12T02:50:08.107Z,15.18
2022-09-12T02:50:40.204Z,13.43
2022-09-12T02:51:12.212Z,15.80
2022-09-12T02:51:45.216Z,12.27
2022-09-12T02:52:16.980Z,10.90
2022-09-12T02:52:48.767Z,11.93
2022-09-12T02:53:20.656Z,8.65
2022-09-12T02:53:53.256Z,8.23
2022-09-12T02:54:25.132Z,12.20
2022-09-12T02:54:57.552Z,11.05
2022-09-12T02:55:30.426Z,10.85
2022-09-12T02:56:02.949Z,14.57
2022-09-12T02:56:34.820Z,11.02
2022-09-12T02:57:19.503Z,11.70
2022-09-12T02:57:53.521Z,12.30
2022-09-12T02:58:27.642Z,8.77
2022-09-12T02:59:05.286Z,10.10
2022-09-12T02:59:36.847Z,13.32
2022-09-12T03:00:09.385Z,15.23
2022-09-12T03:01:11.214Z,11.85
2022-09-12T03:02:36.752Z,11.13
2022-09-12T03:03:31.688Z,12.30
2022-09-12T03:04:13.046Z,10.45
2022-09-12T03:05:03.004Z,8.50
2022-09-12T03:05:41.182Z,9.43
2022-09-12T03:06:26.060Z,8.88
2022-09-12T03:07:11.292Z,8.60
2022-09-12T03:08:02.816Z,14.05
2022-09-12T03:08:43.426Z,12.98
2022-09-12T03:09:52.323Z,12.48
2022-09-12T03:10:41.879Z,10.15
2022-09-12T03:11:22.777Z,10.20
2022-09-12T03:12:06.051Z,10.95
2022-09-12T03:12:55.463Z,9.13
2022-09-12T03:13:34.144Z,8.27
2022-09-12T03:14:24.345Z,8.23
2022-09-12T03:15:09.140Z,10.07
2022-09-12T03:15:52.179Z,8.63
2022-09-12T03:16:47.227Z,9.90
2022-09-12T03:17:31.077Z,8.02
2022-09-12T03:18:08.469Z,7.95
2022-09-12T03:19:03.733Z,10.60
2022-09-12T03:19:59.999Z,11.00
2022-09-12T03:20:42.120Z,9.75
2022-09-12T03:21:28.480Z,11.27
2022-09-12T03:22:02.525Z,12.65
2022-09-12T03:22:42.909Z,10.43
2022-09-12T03:23:36.788Z,12.75
2022-09-12T03:24:26.997Z,13.48
2022-09-12T03:25:17.981Z,13.68
2022-09-12T03:26:13.184Z,12.68
2022-09-12T03:26:48.857Z,14.52
2022-09-12T03:27:28.351Z,14.10
2022-09-12T03:28:07.490Z,10.38
2022-09-12T03:28:39.601Z,12.88
2022-09-12T03:29:12.098Z,16.35
2022-09-12T03:29:46.243Z,15.32
2022-09-12T03:30:17.953Z,10.70
2022-09-12T03:30:51.518Z,12.18
2022-09-12T03:31:23.271Z,14.57
2022-09-12T03:31:56.923Z,11.95
2022-09-12T03:32:48.512Z,11.30
2022-09-12T03:33:22.523Z,12.52
2022-09-12T03:33:54.050Z,11.38
2022-09-12T03:34:27.048Z,15.10
2022-09-12T03:34:58.901Z,12.30
2022-09-12T03:35:30.606Z,17.80
2022-09-12T03:36:02.341Z,12.75
2022-09-12T03:36:33.865Z,11.70
2022-09-12T03:37:05.507Z,11.50
2022-09-12T03:37:37.135Z,10.82
2022-09-12T03:38:08.806Z,11.30
2022-09-12T03:38:40.537Z,12.88
2022-09-12T03:39:12.467Z,15.82
2022-09-12T03:39:44.073Z,13.30
2022-09-12T03:40:15.650Z,13.98
2022-09-12T03:40:50.305Z,11.82
2022-09-12T03:41:24.363Z,16.00
2022-09-12T03:41:56.196Z,13.20
2022-09-12T03:42:27.713Z,12.85
2022-09-12T03:42:59.484Z,14.60
2022-09-12T03:43:31.039Z,13.57
2022-09-12T03:44:02.986Z,13.77
2022-09-12T03:44:34.479Z,13.38
2022-09-12T03:45:06.843Z,15.73
2022-09-12T03:45:38.840Z,13.43
2022-09-12T03:46:10.468Z,16.05
2022-09-12T03:46:42.024Z,12.38
2022-09-12T03:47:13.533Z,15.73
2022-09-12T03:47:45.050Z,15.20
2022-09-12T03:48:16.702Z,15.30
2022-09-12T03:48:48.346Z,17.27
2022-09-12T03:49:19.897Z,21.23
2022-09-12T03:49:52.526Z,15.77
2022-09-12T03:50:24.075Z,17.45
2022-09-12T03:50:55.799Z,15.32
2022-09-12T03:51:27.390Z,12.90
2022-09-12T03:51:58.914Z,14.13
2022-09-12T03:52:30.529Z,16.15
2022-09-12T03:53:02.932Z,14.02
2022-09-12T03:53:34.873Z,17.27
2022-09-12T03:54:06.783Z,21.50
2022-09-12T03:54:39.594Z,14.43
2022-09-12T03:55:12.049Z,14.68
2022-09-12T03:55:43.563Z,15.85
2022-09-12T03:56:15.062Z,13.32
2022-09-12T03:56:46.937Z,14.80
2022-09-12T03:57:18.785Z,12.90
2022-09-12T03:57:53.762Z,13.15
2022-09-12T03:58:25.794Z,17.27
2022-09-12T03:58:57.540Z,17.52
2022-09-12T03:59:29.177Z,15.20
2022-09-12T04:00:02.025Z,17.90
2022-09-12T04:00:33.754Z,14.30
2022-09-12T04:01:13.418Z,26.92
2022-09-12T04:01:45.112Z,14.25
2022-09-12T04:02:17.654Z,18.05
2022-09-12T04:02:53.661Z,17.35
2022-09-12T04:03:25.277Z,12.80
2022-09-12T04:03:56.779Z,16.30
2022-09-12T04:04:28.434Z,17.80
2022-09-12T04:05:00.109Z,13.10
2022-09-12T04:05:31.888Z,20.70
2022-09-12T04:06:03.534Z,17.15
2022-09-12T04:06:35.606Z,16.00
2022-09-12T04:07:07.085Z,14.10
2022-09-12T04:07:38.620Z,15.73
2022-09-12T04:08:10.144Z,16.15
2022-09-12T04:08:42.838Z,14.65
2022-09-12T04:09:14.322Z,14.77
2022-09-12T04:09:46.054Z,16.75
2022-09-12T04:10:17.802Z,14.32
2022-09-12T04:10:49.350Z,15.07
2022-09-12T04:11:22.409Z,13.70
2022-09-12T04:11:53.932Z,15.63
2022-09-12T04:12:25.481Z,16.05
2022-09-12T04:12:57.137Z,20.50
2022-09-12T04:13:28.652Z,19.30
2022-09-12T04:14:00.283Z,17.55
2022-09-12T04:14:31.779Z,18.05
2022-09-12T04:15:03.644Z,17.90
2022-09-12T04:15:35.192Z,20.38
2022-09-12T04:16:07.464Z,16.00
2022-09-12T04:16:39.005Z,15.73
2022-09-12T04:17:10.804Z,17.42
2022-09-12T04:17:42.341Z,15.98
2022-09-12T04:18:13.935Z,18.02
2022-09-12T04:18:46.020Z,17.77
2022-09-12T04:19:17.616Z,15.85
2022-09-12T04:19:49.288Z,14.30
2022-09-12T04:20:20.821Z,18.90
2022-09-12T04:20:52.287Z,19.85
2022-09-12T04:21:23.996Z,21.98
2022-09-12T04:21:55.565Z,17.65
2022-09-12T04:22:27.261Z,15.75
2022-09-12T04:22:58.736Z,22.45
2022-09-12T04:23:30.231Z,21.52
2022-09-12T04:24:02.034Z,17.35
2022-09-12T04:24:33.677Z,17.13
2022-09-12T04:25:05.760Z,17.25
2022-09-12T04:25:37.422Z,14.73
2022-09-12T04:26:09.715Z,21.88
2022-09-12T04:26:41.902Z,19.42
2022-09-12T04:27:13.477Z,20.85
2022-09-12T04:27:45.229Z,21.00
2022-09-12T04:28:16.844Z,15.10
2022-09-12T04:28:48.760Z,15.13
2022-09-12T04:29:20.371Z,19.45
2022-09-12T04:29:51.877Z,13.73
2022-09-12T04:30:23.428Z,14.05
2022-09-12T04:30:55.825Z,16.75
2022-09-12T04:31:27.337Z,16.00
2022-09-12T04:31:59.042Z,14.88
2022-09-12T04:32:31.376Z,17.42
2022-09-12T04:33:07.422Z,16.63
2022-09-12T04:33:39.816Z,14.23
2022-09-12T04:34:11.468Z,22.17
2022-09-12T04:34:43.036Z,15.50
2022-09-12T04:35:14.642Z,16.13
2022-09-12T04:35:46.217Z,16.10
2022-09-12T04:36:17.895Z,17.20
2022-09-12T04:36:49.479Z,20.40
2022-09-12T04:37:21.556Z,17.42
2022-09-12T04:37:53.270Z,20.98
2022-09-12T04:38:24.762Z,19.85
2022-09-12T04:38:56.343Z,19.50
2022-09-12T04:39:28.068Z,19.85
2022-09-12T04:39:59.658Z,22.60
2022-09-12T04:40:31.524Z,17.45
2022-09-12T04:41:19.859Z,16.98
2022-09-12T04:41:51.937Z,18.98
2022-09-12T04:42:24.198Z,18.45
2022-09-12T04:42:56.130Z,18.42
2022-09-12T04:43:27.681Z,19.15
2022-09-12T04:44:02.337Z,19.38
2022-09-12T04:44:33.833Z,20.88
2022-09-12T04:45:06.330Z,19.77
2022-09-12T04:45:37.988Z,19.65
2022-09-12T04:46:11.788Z,20.45
2022-09-12T04:46:46.713Z,19.85
2022-09-12T04:47:18.992Z,16.05
2022-09-12T04:47:50.658Z,15.02
2022-09-12T04:48:22.205Z,15.27
2022-09-12T04:48:56.919Z,21.70
2022-09-12T04:49:28.773Z,16.15
2022-09-12T04:50:00.301Z,13.90
2022-09-12T04:50:31.828Z,16.75
2022-09-12T04:51:10.710Z,18.27
2022-09-12T04:51:42.625Z,17.85
2022-09-12T04:52:14.111Z,14.43
2022-09-12T04:52:52.895Z,15.90
2022-09-12T04:53:24.492Z,19.10
2022-09-12T04:53:58.777Z,20.45
2022-09-12T04:54:30.271Z,19.50
2022-09-12T04:55:01.805Z,20.10
2022-09-12T04:55:34.588Z,22.65
2022-09-12T04:56:08.289Z,21.15
2022-09-12T04:56:41.610Z,19.65
2022-09-12T04:57:13.410Z,20.30
2022-09-12T04:57:44.989Z,20.20
2022-09-12T04:58:16.507Z,17.73
2022-09-12T04:58:49.729Z,22.45
2022-09-12T04:59:21.884Z,19.20
2022-09-12T04:59:53.369Z,20.30
2022-09-12T05:00:25.106Z,26.20
2022-09-12T05:00:56.639Z,23.63
2022-09-12T05:01:30.024Z,21.50
2022-09-12T05:02:02.662Z,18.35
2022-09-12T05:02:34.741Z,18.80
2022-09-12T05:03:06.472Z,19.60
2022-09-12T05:03:39.557Z,17.77
2022-09-12T05:04:13.042Z,18.80
2022-09-12T05:04:44.786Z,18.90
2022-09-12T05:05:17.515Z,20.33
2022-09-12T05:05:51.318Z,25.02
2022-09-12T05:06:28.995Z,25.00
2022-09-12T05:07:00.576Z,23.77
2022-09-12T05:07:32.500Z,25.00
2022-09-12T05:08:04.029Z,23.30
2022-09-12T05:08:35.883Z,25.38
2022-09-12T05:09:09.067Z,21.48
2022-09-12T05:09:41.707Z,24.88
2022-09-12T05:10:13.312Z,22.38
2022-09-12T05:10:45.286Z,24.15
2022-09-12T05:11:25.482Z,25.15
2022-09-12T05:12:04.562Z,20.70
2022-09-12T05:12:37.035Z,24.60
2022-09-12T05:13:09.622Z,20.17
2022-09-12T05:13:41.759Z,22.73
2022-09-12T05:14:13.291Z,23.08
2022-09-12T05:14:44.806Z,24.60
2022-09-12T05:15:16.304Z,22.52
2022-09-12T05:15:55.276Z,20.67
2022-09-12T05:16:28.751Z,26.02
2022-09-12T05:17:01.844Z,21.83
2022-09-12T05:17:33.589Z,21.58
2022-09-12T05:18:05.216Z,21.30
2022-09-12T05:18:37.081Z,22.70
2022-09-12T05:19:11.072Z,25.38
2022-09-12T05:19:42.693Z,21.33
2022-09-12T05:20:14.319Z,32.15
2022-09-12T05:20:45.833Z,20.45
2022-09-12T05:21:20.560Z,19.67
2022-09-12T05:21:52.175Z,23.30
2022-09-12T05:22:23.752Z,24.65
2022-09-12T05:22:55.845Z,29.20
2022-09-12T05:23:27.915Z,28.70
2022-09-12T05:24:02.376Z,24.35
2022-09-12T05:24:34.016Z,29.75
2022-09-12T05:25:06.137Z,29.90
2022-09-12T05:25:37.688Z,22.67
2022-09-12T05:26:12.719Z,25.73
2022-09-12T05:26:44.385Z,33.97
2022-09-12T05:27:16.402Z,29.77
2022-09-12T05:27:50.537Z,28.60
2022-09-12T05:28:24.680Z,29.00
2022-09-12T05:28:56.529Z,26.90
2022-09-12T05:29:28.132Z,30.98
2022-09-12T05:29:59.623Z,27.63
2022-09-12T05:30:31.243Z,26.92
2022-09-12T05:31:12.686Z,27.45
2022-09-12T05:31:44.215Z,27.02
2022-09-12T05:32:15.742Z,27.30
2022-09-12T05:32:47.249Z,28.38
2022-09-12T05:33:23.185Z,30.33
2022-09-12T05:33:57.216Z,28.08
2022-09-12T05:34:28.706Z,28.35
2022-09-12T05:35:00.395Z,28.95
2022-09-12T05:35:33.140Z,34.00
2022-09-12T05:36:06.885Z,30.60
2022-09-12T05:36:38.636Z,29.85
2022-09-12T05:37:10.132Z,33.47
2022-09-12T05:37:42.932Z,30.15
2022-09-12T05:38:14.454Z,32.28
2022-09-12T05:38:46.761Z,33.60
2022-09-12T05:39:18.597Z,36.60
2022-09-12T05:39:50.166Z,36.88
2022-09-12T05:40:21.710Z,38.45
2022-09-12T05:40:53.545Z,32.55
2022-09-12T05:41:27.193Z,37.22
2022-09-12T05:41:58.673Z,33.53
2022-09-12T05:42:30.491Z,35.33
2022-09-12T05:43:02.064Z,40.03
2022-09-12T05:43:34.420Z,36.72
2022-09-12T05:44:07.516Z,40.30
2022-09-12T05:44:39.130Z,36.25
2022-09-12T05:45:10.842Z,32.78
2022-09-12T05:45:42.661Z,37.20
2022-09-12T05:46:19.021Z,36.00
2022-09-12T05:46:51.393Z,37.25
2022-09-12T05:47:23.518Z,36.05
2022-09-12T05:47:54.992Z,32.83
2022-09-12T05:48:26.612Z,33.63
2022-09-12T05:49:04.118Z,38.05
2022-09-12T05:49:36.152Z,38.53
2022-09-12T05:50:10.915Z,36.20
2022-09-12T05:50:42.616Z,38.65
2022-09-12T05:51:20.342Z,36.20
2022-09-12T05:51:51.949Z,37.13
2022-09-12T05:52:23.713Z,39.10
2022-09-12T05:52:55.238Z,41.50
2022-09-12T05:53:28.243Z,34.45
2022-09-12T05:54:01.154Z,36.05
2022-09-12T05:54:33.423Z,34.97
2022-09-12T05:55:05.566Z,34.92
2022-09-12T05:55:37.140Z,34.92
2022-09-12T05:56:14.029Z,41.35
2022-09-12T05:56:46.168Z,31.42
2022-09-12T05:57:17.673Z,38.88
2022-09-12T05:57:49.365Z,39.13
2022-09-12T05:58:21.325Z,35.28
2022-09-12T05:59:07.077Z,37.15
2022-09-12T05:59:39.687Z,38.28
2022-09-12T06:00:12.343Z,36.70
2022-09-12T06:00:43.814Z,36.58
2022-09-12T06:01:17.271Z,37.72
2022-09-12T06:01:49.331Z,35.92
2022-09-12T06:02:21.679Z,40.08
2022-09-12T06:02:53.643Z,33.67
2022-09-12T06:03:25.334Z,35.90
2022-09-12T06:04:00.822Z,38.60
2022-09-12T06:04:32.348Z,39.63
2022-09-12T06:05:04.138Z,36.58
2022-09-12T06:05:35.943Z,41.45
2022-09-12T06:06:08.459Z,37.05
2022-09-12T06:06:42.061Z,37.25
2022-09-12T06:07:14.798Z,36.70
2022-09-12T06:07:47.210Z,38.78
2022-09-12T06:08:18.703Z,33.78
2022-09-12T06:08:52.088Z,38.75
2022-09-12T06:09:25.526Z,33.38
2022-09-12T06:10:00.049Z,36.63
2022-09-12T06:10:31.575Z,37.83
2022-09-12T06:11:05.230Z,33.85
2022-09-12T06:11:40.779Z,43.38
2022-09-12T06:12:12.255Z,30.23
2022-09-12T06:12:43.822Z,33.10
2022-09-12T06:13:15.316Z,37.85
2022-09-12T06:13:47.093Z,35.92
2022-09-12T06:14:19.511Z,38.22
2022-09-12T06:14:51.052Z,30.13
2022-09-12T06:15:22.876Z,33.45
2022-09-12T06:15:54.391Z,33.78
2022-09-12T06:16:28.784Z,35.92
2022-09-12T06:17:00.510Z,40.47
2022-09-12T06:17:32.399Z,36.17
2022-09-12T06:18:04.088Z,36.65
2022-09-12T06:18:35.985Z,39.75
2022-09-12T06:19:19.370Z,38.83
2022-09-12T06:19:51.135Z,41.03
2022-09-12T06:20:22.817Z,36.15
2022-09-12T06:20:54.347Z,40.30
2022-09-12T06:21:26.788Z,38.85
2022-09-12T06:21:58.960Z,35.20
2022-09-12T06:22:31.845Z,44.88
2022-09-12T06:23:03.420Z,39.42
2022-09-12T06:23:35.495Z,44.47
2022-09-12T06:24:07.661Z,37.58
2022-09-12T06:24:39.177Z,39.05
2022-09-12T06:25:10.694Z,39.40
2022-09-12T06:25:47.743Z,35.33
2022-09-12T06:26:22.472Z,40.72
2022-09-12T06:26:54.128Z,38.42
2022-09-12T06:27:25.663Z,40.45
2022-09-12T06:27:57.187Z,38.15
2022-09-12T06:28:28.889Z,37.65
2022-09-12T06:29:01.092Z,39.30
2022-09-12T06:29:32.732Z,41.15
2022-09-12T06:30:05.252Z,40.50
2022-09-12T06:30:36.972Z,36.85
2022-09-12T06:31:20.648Z,35.58
2022-09-12T06:31:52.350Z,41.28
2022-09-12T06:32:23.908Z,44.83
2022-09-12T06:32:56.881Z,40.08
2022-09-12T06:33:28.419Z,37.92
2022-09-12T06:34:02.407Z,40.88
2022-09-12T06:34:34.089Z,45.58
2022-09-12T06:35:05.768Z,44.30
2022-09-12T06:35:38.399Z,41.75
2022-09-12T06:36:13.034Z,43.65
2022-09-12T06:36:47.165Z,43.58
2022-09-12T06:37:18.898Z,39.83
2022-09-12T06:37:50.423Z,44.67
2022-09-12T06:38:21.929Z,44.17
2022-09-12T06:38:56.214Z,45.05
2022-09-12T06:39:28.018Z,42.88
2022-09-12T06:40:02.001Z,41.30
2022-09-12T06:40:33.939Z,42.33
2022-09-12T06:41:07.306Z,42.05
2022-09-12T06:41:43.512Z,38.80
2022-09-12T06:42:15.766Z,39.97
2022-09-12T06:42:56.030Z,38.95
2022-09-12T06:43:37.322Z,42.42
2022-09-12T06:44:12.591Z,40.25
2022-09-12T06:44:44.731Z,42.88
2022-09-12T06:45:16.846Z,38.92
2022-09-12T06:45:49.575Z,43.70
2022-09-12T06:46:21.857Z,39.75
2022-09-12T06:46:54.165Z,41.28
2022-09-12T06:47:25.780Z,48.70
2022-09-12T06:47:57.610Z,43.70
2022-09-12T06:48:29.491Z,39.58
2022-09-12T06:49:01.998Z,43.47
2022-09-12T06:49:34.008Z,44.53
2022-09-12T06:50:06.098Z,41.58
2022-09-12T06:50:37.626Z,47.58
2022-09-12T06:51:13.960Z,42.05
2022-09-12T06:51:45.714Z,41.50
2022-09-12T06:52:18.061Z,44.25
2022-09-12T06:52:51.105Z,40.70
2022-09-12T06:53:23.485Z,48.08
2022-09-12T06:53:57.056Z,40.67
2022-09-12T06:54:28.661Z,38.75
2022-09-12T06:55:00.372Z,46.50
2022-09-12T06:55:31.919Z,49.17
2022-09-12T06:56:09.916Z,42.95
2022-09-12T06:56:41.717Z,42.13
2022-09-12T06:57:13.284Z,38.75
2022-09-12T06:57:44.851Z,41.08
2022-09-12T06:58:16.426Z,44.33
2022-09-12T06:58:49.488Z,45.28
2022-09-12T06:59:21.045Z,40.08
2022-09-12T06:59:52.610Z,41.78
2022-09-12T07:00:24.265Z,41.30
2022-09-12T07:01:23.316Z,44.90
2022-09-12T07:01:55.005Z,44.58
2022-09-12T07:02:26.909Z,43.17
2022-09-12T07:02:58.522Z,47.30
2022-09-12T07:03:30.808Z,40.03
2022-09-12T07:04:04.076Z,43.03
2022-09-12T07:04:37.171Z,40.25
2022-09-12T07:05:09.151Z,46.78
2022-09-12T07:05:40.717Z,42.40
2022-09-12T07:06:13.959Z,43.95
2022-09-12T07:06:45.660Z,39.78
2022-09-12T07:07:18.023Z,37.38
2022-09-12T07:07:49.617Z,38.15
2022-09-12T07:08:21.268Z,41.20
2022-09-12T07:08:52.915Z,38.85
2022-09-12T07:09:24.896Z,39.85
2022-09-12T07:09:57.923Z,43.83
2022-09-12T07:10:31.105Z,36.10
2022-09-12T07:11:24.480Z,38.53
2022-09-12T07:11:56.119Z,37.05
2022-09-12T07:12:29.091Z,38.40
2022-09-12T07:13:00.638Z,43.40
2022-09-12T07:13:32.381Z,37.50
2022-09-12T07:14:05.468Z,43.10
2022-09-12T07:14:37.002Z,43.55
2022-09-12T07:15:10.436Z,43.45
2022-09-12T07:15:42.020Z,45.53
2022-09-12T07:16:19.250Z,42.30
2022-09-12T07:16:51.416Z,37.13
2022-09-12T07:17:23.162Z,43.92
2022-09-12T07:17:54.901Z,41.92
2022-09-12T07:18:27.204Z,39.60
2022-09-12T07:19:02.900Z,42.13
2022-09-12T07:19:35.031Z,42.85
2022-09-12T07:20:09.976Z,44.28
2022-09-12T07:20:41.918Z,43.25
2022-09-12T07:21:14.968Z,40.63
2022-09-12T07:21:46.492Z,41.78
2022-09-12T07:22:18.001Z,40.28
2022-09-12T07:22:50.598Z,36.17
2022-09-12T07:23:22.158Z,46.85
2022-09-12T07:23:55.362Z,45.63
2022-09-12T07:24:26.904Z,44.65
2022-09-12T07:24:58.680Z,38.65
2022-09-12T07:25:30.239Z,39.65
2022-09-12T07:26:02.396Z,41.75
2022-09-12T07:26:34.066Z,43.22
2022-09-12T07:27:05.800Z,45.45
2022-09-12T07:27:37.808Z,40.88
2022-09-12T07:28:09.466Z,42.53
2022-09-12T07:28:41.242Z,42.92
2022-09-12T07:29:36.037Z,42.90
2022-09-12T07:30:08.071Z,38.13
2022-09-12T07:30:39.845Z,43.97
2022-09-12T07:31:16.695Z,46.15
2022-09-12T07:31:48.364Z,43.38
2022-09-12T07:32:19.929Z,40.30
2022-09-12T07:32:53.490Z,42.35
2022-09-12T07:33:28.002Z,42.70
2022-09-12T07:33:59.552Z,44.05
2022-09-12T07:34:31.532Z,42.65
2022-09-12T07:35:03.347Z,44.15
2022-09-12T07:35:35.106Z,39.92
2022-09-12T07:36:15.045Z,37.80
2022-09-12T07:36:46.681Z,37.97